Terminal Aerodrome Forecast
Issued by NWS Charleston, WV

Current Version | Previous Version | Graphics & Text | Print | Product List | Glossary On
Versions: 1 2 3 4 5 6 7 8 9 10 11 12 13 14 15 16 17 18 19 20 21 22 23 24 25 26 27
000
FTUS41 KRLX 242300 RRA
TAFCRW
TAF
KCRW 242342Z 2500/2524 09002KT P6SM OVC070
     FM250800 15005KT P6SM BKN060
     FM251500 21010G16KT P6SM BKN050
     FM252000 22010KT P6SM BKN050
     FM252200 23005KT P6SM BKN040=

USA.gov is the U.S. government's official web portal to all federal, state and local government web resources and services.